createdAt,value
2019-05-03T00:02:29.507Z,58.01
2019-05-03T00:05:04.646Z,58.76
2019-05-03T00:07:37.320Z,59.54
2019-05-03T00:10:12.836Z,60.25
2019-05-03T00:12:46.140Z,60.90
2019-05-03T00:15:21.602Z,61.47
2019-05-03T00:17:54.470Z,62.12
2019-05-03T00:20:27.631Z,62.50
2019-05-03T00:23:00.475Z,64.90
2019-05-03T00:25:33.090Z,59.21
2019-05-03T00:28:06.195Z,54.04
2019-05-03T00:30:38.880Z,54.40
2019-05-03T00:33:11.801Z,55.57
2019-05-03T00:35:47.265Z,56.01
2019-05-03T00:38:21.768Z,57.42
2019-05-03T00:40:54.505Z,57.96
2019-05-03T00:43:27.200Z,59.24
2019-05-03T00:46:01.880Z,60.08
2019-05-03T00:48:34.487Z,60.16
2019-05-03T00:51:06.985Z,59.57
2019-05-03T00:53:39.699Z,59.94
2019-05-03T00:56:12.291Z,60.27
2019-05-03T00:58:49.477Z,60.84
2019-05-03T01:01:22.513Z,60.70
2019-05-03T01:03:55.395Z,62.28
2019-05-03T01:06:28.049Z,62.88
2019-05-03T01:09:02.548Z,65.19
2019-05-03T01:11:36.861Z,59.87
2019-05-03T01:14:11.678Z,56.26
2019-05-03T01:16:44.050Z,52.18
2019-05-03T01:19:16.801Z,52.16
2019-05-03T01:21:51.471Z,52.59
2019-05-03T01:24:23.960Z,53.45
2019-05-03T01:26:57.642Z,54.38
2019-05-03T01:29:32.248Z,55.42
2019-05-03T01:32:04.892Z,56.22
2019-05-03T01:34:37.616Z,56.83
2019-05-03T01:37:11.910Z,58.62
2019-05-03T01:39:44.797Z,59.16
2019-05-03T01:42:17.659Z,60.68
2019-05-03T01:44:52.298Z,60.96
2019-05-03T01:47:33.200Z,61.28
2019-05-03T01:50:07.644Z,62.04
2019-05-03T01:52:42.018Z,62.72
2019-05-03T01:55:16.018Z,65.60
2019-05-03T01:57:48.626Z,60.90
2019-05-03T02:00:24.002Z,54.70
2019-05-03T02:03:12.265Z,52.34
2019-05-03T02:05:48.751Z,51.92
2019-05-03T02:08:21.993Z,53.62
2019-05-03T02:10:54.760Z,54.57
2019-05-03T02:13:27.235Z,56.07
2019-05-03T02:15:59.852Z,57.00
2019-05-03T02:18:32.500Z,58.24
2019-05-03T02:21:05.318Z,59.44
2019-05-03T02:23:38.080Z,59.97
2019-05-03T02:26:11.795Z,60.69
2019-05-03T02:28:44.660Z,61.46
2019-05-03T02:31:17.516Z,62.43
2019-05-03T02:33:53.119Z,65.08
2019-05-03T02:36:24.770Z,61.83
2019-05-03T02:38:57.536Z,55.51
2019-05-03T02:41:30.331Z,52.82
2019-05-03T02:44:02.951Z,51.96
2019-05-03T02:46:37.797Z,53.28
2019-05-03T02:49:17.945Z,54.63
2019-05-03T02:51:50.745Z,54.71
2019-05-03T02:54:26.541Z,56.19
2019-05-03T02:56:58.023Z,56.46
2019-05-03T02:59:30.608Z,56.98
2019-05-03T03:02:06.131Z,57.62
2019-05-03T03:04:37.969Z,58.52
2019-05-03T03:07:10.887Z,58.58
2019-05-03T03:09:45.302Z,58.73
2019-05-03T03:12:20.384Z,59.43
2019-05-03T03:14:55.154Z,59.15
2019-05-03T03:17:32.395Z,60.07
2019-05-03T03:20:09.566Z,60.56
2019-05-03T03:22:45.785Z,60.06
2019-05-03T03:25:19.779Z,61.24
2019-05-03T03:27:55.866Z,61.53
2019-05-03T03:30:58.691Z,62.08
2019-05-03T03:33:31.376Z,61.83
2019-05-03T03:36:31.305Z,62.99
2019-05-03T03:38:38.378Z,64.52
2019-05-03T03:41:12.629Z,58.56
2019-05-03T03:43:47.226Z,54.36
2019-05-03T03:46:21.209Z,54.13
2019-05-03T03:48:56.201Z,54.84
2019-05-03T03:51:31.505Z,55.28
2019-05-03T03:54:06.785Z,56.19
2019-05-03T03:56:54.504Z,56.45
2019-05-03T03:59:15.513Z,56.70
2019-05-03T04:01:48.240Z,57.73
2019-05-03T04:04:21.334Z,58.23
2019-05-03T04:06:58.458Z,59.02
2019-05-03T04:09:29.589Z,59.64
2019-05-03T04:12:02.790Z,60.79
2019-05-03T04:14:55.985Z,61.11
2019-05-03T04:17:45.642Z,61.30
2019-05-03T04:20:20.116Z,61.94
2019-05-03T04:22:56.026Z,62.53
2019-05-03T04:25:28.734Z,64.75
2019-05-03T04:28:01.175Z,60.14
2019-05-03T04:30:36.172Z,55.80
2019-05-03T04:33:08.124Z,50.55
2019-05-03T04:35:40.737Z,51.70
2019-05-03T04:38:16.021Z,51.59
2019-05-03T04:40:47.625Z,53.04
2019-05-03T04:43:20.721Z,53.16
2019-05-03T04:46:06.688Z,54.04
2019-05-03T04:48:38.111Z,55.38
2019-05-03T04:51:10.981Z,55.28
2019-05-03T04:53:45.562Z,56.42
2019-05-03T04:56:18.170Z,56.17
2019-05-03T04:58:50.886Z,57.12
2019-05-03T05:01:25.956Z,57.88
2019-05-03T05:03:58.155Z,57.95
2019-05-03T05:06:30.749Z,58.86
2019-05-03T05:09:05.008Z,58.44
2019-05-03T05:11:37.386Z,58.39
2019-05-03T05:14:10.425Z,58.21
2019-05-03T05:16:46.261Z,57.59
2019-05-03T05:19:19.355Z,58.30
2019-05-03T05:21:56.650Z,57.98
2019-05-03T05:24:29.439Z,58.74
2019-05-03T05:27:22.290Z,58.90
2019-05-03T05:29:55.383Z,58.70
2019-05-03T05:32:28.410Z,59.39
2019-05-03T05:35:01.170Z,58.55
2019-05-03T05:37:35.222Z,58.35
2019-05-03T05:40:09.146Z,58.54
2019-05-03T05:42:41.866Z,58.61
2019-05-03T05:45:15.359Z,55.51
2019-05-03T05:47:54.687Z,55.48
2019-05-03T05:50:31.415Z,52.32
2019-05-03T05:53:05.345Z,48.82
2019-05-03T05:55:49.666Z,49.05
2019-05-03T05:58:25.676Z,49.38
2019-05-03T06:01:15.025Z,48.98
2019-05-03T06:03:47.741Z,49.99
2019-05-03T06:06:25.010Z,50.40
2019-05-03T06:08:59.600Z,48.50
2019-05-03T06:11:34.735Z,49.72
2019-05-03T06:14:09.315Z,49.56
2019-05-03T06:16:45.155Z,50.20
2019-05-03T06:19:28.680Z,49.68
2019-05-03T06:22:10.426Z,50.59
2019-05-03T06:24:47.647Z,50.07
2019-05-03T06:27:24.895Z,49.97
2019-05-03T06:29:59.266Z,49.97
2019-05-03T06:32:34.549Z,49.56
2019-05-03T06:35:08.627Z,49.56
2019-05-03T06:37:42.984Z,50.64
2019-05-03T06:40:16.434Z,50.06
2019-05-03T06:42:54.644Z,49.70
2019-05-03T06:45:24.978Z,49.70
2019-05-03T06:47:57.735Z,49.60
2019-05-03T06:50:30.771Z,49.29
2019-05-03T06:53:05.847Z,50.22
2019-05-03T06:55:39.984Z,49.62
2019-05-03T06:58:12.569Z,50.91
2019-05-03T07:00:46.890Z,49.30
2019-05-03T07:03:26.825Z,48.74
2019-05-03T07:06:17.423Z,47.64
2019-05-03T07:08:55.175Z,47.55
2019-05-03T07:11:28.326Z,47.11
2019-05-03T07:14:01.213Z,46.25
2019-05-03T07:16:35.325Z,47.77
2019-05-03T07:19:07.992Z,47.23
2019-05-03T07:21:41.220Z,46.06
2019-05-03T07:24:14.619Z,44.22
2019-05-03T07:26:47.536Z,46.11
2019-05-03T07:29:20.325Z,44.71
2019-05-03T07:31:54.910Z,45.61
2019-05-03T07:34:28.350Z,44.81
2019-05-03T07:37:00.746Z,46.04
2019-05-03T07:39:34.904Z,45.65
2019-05-03T07:42:07.945Z,43.06
2019-05-03T07:44:41.830Z,42.22
2019-05-03T07:47:14.934Z,42.20
2019-05-03T07:49:47.759Z,41.19
2019-05-03T07:52:20.517Z,42.29
2019-05-03T07:54:55.179Z,40.41
2019-05-03T07:57:35.782Z,42.38
2019-05-03T08:00:11.309Z,40.89
2019-05-03T08:02:44.688Z,42.55
2019-05-03T08:05:17.675Z,41.50
2019-05-03T08:07:50.515Z,43.11
2019-05-03T08:10:25.608Z,40.05
2019-05-03T08:12:58.070Z,40.77
2019-05-03T08:15:30.838Z,41.52
2019-05-03T08:18:04.966Z,39.76
2019-05-03T08:20:37.810Z,39.71
2019-05-03T08:23:23.677Z,40.10
2019-05-03T08:25:45.303Z,39.75
2019-05-03T08:28:18.088Z,40.61
2019-05-03T08:30:54.389Z,39.36
2019-05-03T08:33:37.510Z,37.33
2019-05-03T08:36:10.111Z,39.35
2019-05-03T08:38:45.223Z,39.10
2019-05-03T08:41:25.781Z,37.87
2019-05-03T08:43:58.536Z,38.22
2019-05-03T08:46:31.115Z,39.46
2019-05-03T08:49:05.237Z,39.14
2019-05-03T08:51:39.491Z,40.28
2019-05-03T08:54:12.130Z,38.20
2019-05-03T08:56:45.233Z,38.18
2019-05-03T08:59:28.674Z,38.86
2019-05-03T09:01:54.842Z,37.69
2019-05-03T09:04:36.644Z,37.74
2019-05-03T09:07:01.446Z,39.47
2019-05-03T09:09:35.903Z,38.34
2019-05-03T09:12:08.651Z,39.37
2019-05-03T09:14:45.498Z,37.77
2019-05-03T09:17:15.985Z,37.94
2019-05-03T09:19:48.975Z,35.27
2019-05-03T09:22:21.655Z,34.97
2019-05-03T09:24:54.684Z,35.14
2019-05-03T09:27:28.550Z,36.15
2019-05-03T09:30:01.445Z,34.99
2019-05-03T09:32:35.015Z,36.47
2019-05-03T09:35:08.565Z,37.91
2019-05-03T09:37:41.181Z,34.65
2019-05-03T09:40:15.264Z,35.50
2019-05-03T09:42:48.095Z,35.09
2019-05-03T09:45:21.115Z,34.57
2019-05-03T09:47:55.126Z,34.05
2019-05-03T09:50:28.450Z,34.66
2019-05-03T09:53:01.431Z,33.60
2019-05-03T09:55:35.675Z,33.30
2019-05-03T09:58:08.185Z,32.12
2019-05-03T10:00:41.135Z,32.65
2019-05-03T10:03:14.210Z,32.56
2019-05-03T10:05:47.071Z,33.56
2019-05-03T10:08:19.896Z,33.21
2019-05-03T10:11:10.065Z,32.70
2019-05-03T10:13:43.201Z,32.41
2019-05-03T10:16:18.006Z,33.10
2019-05-03T10:18:50.687Z,31.22
2019-05-03T10:21:25.736Z,32.64
2019-05-03T10:23:58.749Z,30.64
2019-05-03T10:26:31.727Z,32.27
2019-05-03T10:29:05.437Z,32.63
2019-05-03T10:31:44.894Z,32.05
2019-05-03T10:34:17.984Z,30.69
2019-05-03T10:36:50.921Z,30.72
2019-05-03T10:39:26.129Z,31.69
2019-05-03T10:41:58.068Z,30.03
2019-05-03T10:44:31.045Z,31.13
2019-05-03T10:47:05.481Z,31.02
2019-05-03T10:49:38.715Z,31.02
2019-05-03T10:52:11.978Z,31.11
2019-05-03T10:54:45.944Z,30.49
2019-05-03T10:57:20.195Z,29.36
2019-05-03T10:59:53.190Z,31.95
2019-05-03T11:02:45.309Z,29.70
2019-05-03T11:05:18.265Z,28.64
2019-05-03T11:07:50.946Z,30.84
2019-05-03T11:10:25.279Z,29.76
2019-05-03T11:12:59.405Z,30.58
2019-05-03T11:15:32.402Z,29.94
2019-05-03T11:18:05.685Z,28.80
2019-05-03T11:20:39.087Z,31.49
2019-05-03T11:23:12.071Z,29.71
2019-05-03T11:25:45.275Z,29.61
2019-05-03T11:28:19.927Z,29.76
2019-05-03T11:30:59.076Z,28.91
2019-05-03T11:33:29.756Z,30.75
2019-05-03T11:36:14.903Z,30.00
2019-05-03T11:38:47.312Z,30.22
2019-05-03T11:41:30.222Z,30.35
2019-05-03T11:43:54.255Z,30.97
2019-05-03T11:46:26.900Z,32.17
2019-05-03T11:48:59.652Z,31.25
2019-05-03T11:51:32.661Z,31.80
2019-05-03T11:54:05.849Z,31.13
2019-05-03T11:56:38.925Z,29.02
2019-05-03T11:59:11.475Z,30.33
2019-05-03T12:01:55.398Z,28.48
2019-05-03T12:04:28.245Z,29.18
2019-05-03T12:07:01.795Z,29.44
2019-05-03T12:09:34.562Z,28.88
2019-05-03T12:12:08.670Z,28.89
2019-05-03T12:14:41.110Z,29.30
2019-05-03T12:17:20.933Z,29.78
2019-05-03T12:19:50.663Z,30.08
2019-05-03T12:22:25.821Z,30.83
2019-05-03T12:24:58.701Z,30.62
2019-05-03T12:27:31.859Z,28.91
2019-05-03T12:30:06.325Z,29.68
2019-05-03T12:32:39.231Z,28.69
2019-05-03T12:35:12.210Z,28.52
2019-05-03T12:37:45.051Z,28.73
2019-05-03T12:40:17.860Z,30.12
2019-05-03T12:42:50.725Z,28.28
2019-05-03T12:45:24.758Z,29.11
2019-05-03T12:47:57.895Z,29.15
2019-05-03T12:50:30.510Z,28.80
2019-05-03T12:53:04.881Z,30.15
2019-05-03T12:55:38.061Z,28.57
2019-05-03T12:58:10.991Z,29.56
2019-05-03T13:00:57.345Z,28.71
2019-05-03T13:03:31.715Z,28.70
2019-05-03T13:06:07.174Z,28.89
2019-05-03T13:08:45.378Z,27.48
2019-05-03T13:11:17.750Z,27.90
2019-05-03T13:13:51.760Z,28.07
2019-05-03T13:16:24.782Z,28.16
2019-05-03T13:18:57.595Z,29.32
2019-05-03T13:21:30.075Z,29.21
2019-05-03T13:24:05.074Z,28.48
2019-05-03T13:26:38.735Z,28.86
2019-05-03T13:29:11.390Z,28.32
2019-05-03T13:31:55.839Z,28.23
2019-05-03T13:34:18.450Z,28.88
2019-05-03T13:36:51.160Z,29.02
2019-05-03T13:39:26.282Z,29.56
2019-05-03T13:41:58.351Z,29.19
2019-05-03T13:44:31.280Z,28.48
2019-05-03T13:47:05.310Z,27.85
2019-05-03T13:49:38.066Z,27.71
2019-05-03T13:52:10.775Z,27.13
2019-05-03T13:54:45.908Z,26.93
2019-05-03T13:57:18.355Z,26.90
2019-05-03T13:59:51.201Z,28.02
2019-05-03T14:02:24.235Z,27.40
2019-05-03T14:04:57.115Z,27.42
2019-05-03T14:07:29.790Z,27.83
2019-05-03T14:10:02.615Z,27.16
2019-05-03T14:12:35.306Z,27.34
2019-05-03T14:15:09.456Z,28.78
2019-05-03T14:17:43.115Z,27.31
2019-05-03T14:20:17.985Z,27.96
2019-05-03T14:22:51.925Z,27.48
2019-05-03T14:25:24.801Z,27.40
2019-05-03T14:27:59.651Z,27.34
2019-05-03T14:30:32.208Z,26.99
2019-05-03T14:33:05.152Z,27.68
2019-05-03T14:35:37.895Z,27.24
2019-05-03T14:38:10.730Z,27.42
2019-05-03T14:40:44.945Z,28.39
2019-05-03T14:43:17.960Z,28.28
2019-05-03T14:45:50.775Z,28.37
2019-05-03T14:48:24.873Z,28.36
2019-05-03T14:50:57.967Z,28.61
2019-05-03T14:53:30.485Z,28.35
2019-05-03T14:56:08.010Z,29.62
2019-05-03T14:59:00.520Z,29.31
2019-05-03T15:01:36.080Z,28.06
2019-05-03T15:04:09.276Z,28.59
2019-05-03T15:06:42.056Z,28.00
2019-05-03T15:09:18.886Z,28.12
2019-05-03T15:11:49.595Z,27.66
2019-05-03T15:14:22.405Z,27.43
2019-05-03T15:16:55.752Z,27.45
2019-05-03T15:19:28.512Z,27.92
2019-05-03T15:22:01.470Z,28.54
2019-05-03T15:24:34.631Z,27.90
2019-05-03T15:27:07.605Z,28.12
2019-05-03T15:29:40.460Z,28.57
2019-05-03T15:32:15.343Z,28.99
2019-05-03T15:34:47.855Z,27.70
2019-05-03T15:37:21.626Z,28.38
2019-05-03T15:39:54.713Z,28.34
2019-05-03T15:42:28.285Z,29.11
2019-05-03T15:45:03.224Z,28.99
2019-05-03T15:47:41.540Z,29.20
2019-05-03T15:50:15.478Z,29.16
2019-05-03T15:52:48.362Z,29.95
2019-05-03T15:55:21.335Z,28.95
2019-05-03T15:57:55.281Z,28.82
2019-05-03T16:00:28.046Z,28.32
2019-05-03T16:03:08.051Z,28.98
2019-05-03T16:05:35.615Z,28.91
2019-05-03T16:08:08.396Z,29.58
2019-05-03T16:10:41.075Z,29.83
2019-05-03T16:13:14.346Z,29.70
2019-05-03T16:15:47.315Z,29.89
2019-05-03T16:18:19.830Z,30.61
2019-05-03T16:20:54.379Z,30.38
2019-05-03T16:23:27.350Z,30.17
2019-05-03T16:26:00.000Z,30.53
2019-05-03T16:28:37.161Z,30.33
2019-05-03T16:31:17.879Z,30.45
2019-05-03T16:33:51.561Z,30.89
2019-05-03T16:36:24.085Z,30.53
2019-05-03T16:38:57.255Z,30.47
2019-05-03T16:41:30.475Z,30.30
2019-05-03T16:44:03.040Z,30.90
2019-05-03T16:46:35.880Z,31.64
2019-05-03T16:49:08.755Z,31.00
2019-05-03T16:51:41.454Z,31.57
2019-05-03T16:54:14.619Z,31.79
2019-05-03T16:56:49.041Z,31.62
2019-05-03T16:59:21.850Z,31.76
2019-05-03T17:01:55.196Z,32.31
2019-05-03T17:04:38.570Z,32.37
2019-05-03T17:07:15.900Z,32.10
2019-05-03T17:10:02.762Z,33.02
2019-05-03T17:12:37.125Z,33.38
2019-05-03T17:15:10.535Z,33.50
2019-05-03T17:17:45.025Z,32.66
2019-05-03T17:20:18.320Z,33.08
2019-05-03T17:22:51.155Z,32.22
2019-05-03T17:25:24.533Z,32.84
2019-05-03T17:27:57.627Z,33.52
2019-05-03T17:30:34.013Z,33.89
2019-05-03T17:33:05.258Z,33.54
2019-05-03T17:35:38.225Z,33.82
2019-05-03T17:38:11.340Z,34.66
2019-05-03T17:40:57.829Z,34.44
2019-05-03T17:43:30.440Z,33.92
2019-05-03T17:46:07.730Z,34.65
2019-05-03T17:48:40.886Z,35.06
2019-05-03T17:51:15.200Z,34.91
2019-05-03T17:53:58.768Z,34.82
2019-05-03T17:56:34.969Z,35.78
2019-05-03T17:59:09.345Z,35.96
2019-05-03T18:01:59.955Z,35.71
2019-05-03T18:04:44.860Z,36.21
2019-05-03T18:07:24.303Z,36.64
2019-05-03T18:09:58.655Z,36.24
2019-05-03T18:12:31.450Z,36.33
2019-05-03T18:15:05.700Z,36.86
2019-05-03T18:17:40.055Z,37.12
2019-05-03T18:20:15.057Z,36.91
2019-05-03T18:22:48.065Z,37.34
2019-05-03T18:25:21.261Z,37.80
2019-05-03T18:27:55.182Z,38.19
2019-05-03T18:30:28.315Z,38.05
2019-05-03T18:33:01.045Z,38.80
2019-05-03T18:35:33.885Z,38.66
2019-05-03T18:38:06.827Z,38.66
2019-05-03T18:40:39.760Z,39.38
2019-05-03T18:43:16.985Z,39.85
2019-05-03T18:45:54.583Z,39.69
2019-05-03T18:48:27.390Z,39.94
2019-05-03T18:51:00.060Z,39.83
2019-05-03T18:53:34.368Z,40.43
2019-05-03T18:56:07.501Z,40.18
2019-05-03T18:58:40.095Z,40.40
2019-05-03T19:01:14.815Z,41.24
2019-05-03T19:03:49.370Z,40.71
2019-05-03T19:06:22.346Z,40.93
2019-05-03T19:09:01.381Z,41.98
2019-05-03T19:11:54.764Z,42.05
2019-05-03T19:14:27.614Z,43.11
2019-05-03T19:17:15.323Z,42.78
2019-05-03T19:19:49.240Z,42.77
2019-05-03T19:22:22.500Z,42.31
2019-05-03T19:24:55.371Z,42.50
2019-05-03T19:27:28.360Z,42.84
2019-05-03T19:30:01.035Z,43.49
2019-05-03T19:32:35.809Z,44.20
2019-05-03T19:35:10.365Z,43.67
2019-05-03T19:37:46.321Z,44.12
2019-05-03T19:40:17.865Z,44.14
2019-05-03T19:42:50.895Z,44.58
2019-05-03T19:45:24.817Z,45.33
2019-05-03T19:47:58.011Z,45.95
2019-05-03T19:50:31.049Z,45.87
2019-05-03T19:53:20.654Z,46.26
2019-05-03T19:55:55.216Z,46.02
2019-05-03T19:58:27.855Z,46.33
2019-05-03T20:01:05.649Z,46.48
2019-05-03T20:03:56.640Z,46.71
2019-05-03T20:06:50.300Z,47.07
2019-05-03T20:09:24.665Z,47.22
2019-05-03T20:11:57.950Z,47.30
2019-05-03T20:14:30.711Z,48.70
2019-05-03T20:17:04.714Z,48.65
2019-05-03T20:19:38.180Z,48.80
2019-05-03T20:22:11.186Z,48.89
2019-05-03T20:24:44.762Z,48.56
2019-05-03T20:27:17.682Z,48.99
2019-05-03T20:29:50.395Z,49.47
2019-05-03T20:32:25.054Z,49.03
2019-05-03T20:35:11.076Z,48.98
2019-05-03T20:37:35.440Z,48.74
2019-05-03T20:40:09.138Z,48.49
2019-05-03T20:42:58.620Z,48.62
2019-05-03T20:45:31.260Z,49.09
2019-05-03T20:48:05.665Z,49.31
2019-05-03T20:50:38.815Z,49.37
2019-05-03T20:53:11.830Z,49.88
2019-05-03T20:55:45.139Z,50.37
2019-05-03T20:58:18.096Z,51.06
2019-05-03T21:00:51.101Z,51.21
2019-05-03T21:03:24.847Z,51.11
2019-05-03T21:05:57.655Z,51.41
2019-05-03T21:08:30.255Z,51.63
2019-05-03T21:11:02.960Z,51.97
2019-05-03T21:13:42.160Z,51.48
2019-05-03T21:16:14.663Z,51.71
2019-05-03T21:18:54.345Z,51.43
2019-05-03T21:21:36.045Z,51.33
2019-05-03T21:24:14.250Z,51.32
2019-05-03T21:26:47.390Z,51.36
2019-05-03T21:29:20.260Z,51.59
2019-05-03T21:31:55.130Z,51.72
2019-05-03T21:34:27.705Z,51.94
2019-05-03T21:37:00.771Z,51.71
2019-05-03T21:39:34.845Z,51.94
2019-05-03T21:42:07.850Z,51.86
2019-05-03T21:44:40.621Z,52.17
2019-05-03T21:47:21.065Z,52.40
2019-05-03T21:49:54.795Z,52.71
2019-05-03T21:52:27.619Z,52.73
2019-05-03T21:55:00.255Z,52.96
2019-05-03T21:57:34.490Z,53.38
2019-05-03T22:00:12.396Z,53.37
2019-05-03T22:02:46.580Z,53.80
2019-05-03T22:05:19.470Z,54.18
2019-05-03T22:07:54.953Z,54.39
2019-05-03T22:10:27.790Z,54.82
2019-05-03T22:13:00.510Z,54.89
2019-05-03T22:15:37.700Z,54.93
2019-05-03T22:18:12.110Z,55.65
2019-05-03T22:20:52.565Z,55.77
2019-05-03T22:23:27.870Z,55.71
2019-05-03T22:26:02.495Z,55.89
2019-05-03T22:28:35.685Z,55.36
2019-05-03T22:31:08.417Z,55.92
2019-05-03T22:33:41.021Z,56.06
2019-05-03T22:36:14.509Z,56.02
2019-05-03T22:38:47.345Z,55.93
2019-05-03T22:41:20.110Z,56.17
2019-05-03T22:43:54.606Z,56.13
2019-05-03T22:46:27.220Z,56.16
2019-05-03T22:48:59.979Z,56.47
2019-05-03T22:51:34.550Z,55.84
2019-05-03T22:54:07.470Z,55.79
2019-05-03T22:56:40.095Z,56.06
2019-05-03T22:59:14.751Z,56.07
2019-05-03T23:01:47.670Z,55.98
2019-05-03T23:04:20.421Z,56.22
2019-05-03T23:06:55.210Z,56.01
2019-05-03T23:09:27.930Z,56.15
2019-05-03T23:12:00.639Z,56.25
2019-05-03T23:14:34.711Z,56.26
2019-05-03T23:17:07.470Z,56.46
2019-05-03T23:19:42.000Z,56.32
2019-05-03T23:22:16.118Z,56.17
2019-05-03T23:24:48.870Z,56.09
2019-05-03T23:27:21.580Z,56.58
2019-05-03T23:29:54.535Z,56.40
2019-05-03T23:32:27.390Z,56.52
2019-05-03T23:35:00.481Z,56.52
2019-05-03T23:37:34.653Z,56.88
2019-05-03T23:40:09.570Z,56.99
2019-05-03T23:42:43.154Z,57.09
2019-05-03T23:45:16.230Z,57.17
2019-05-03T23:47:49.490Z,57.22
2019-05-03T23:50:24.718Z,57.46
2019-05-03T23:52:57.534Z,57.65
2019-05-03T23:55:34.679Z,57.33
2019-05-03T23:58:07.376Z,57.35
